MAS7041 WMKK-YMML
Flight info
| Callsign | MAS7041 |
|---|---|
| Flight time | N/A |
| Altitude | 39000 |
| Route | MITOS1D/32R MITOS M630 BOBAG P501 ANITO B470 PKP L895 SAPDA A585 AD V255 BENDO Y12 ARBEY |
| Aircraft | A359/H-SDE2E3GHIJ3J4J5LM1ORWXY/LB1D1 |
Departure
| Time | N/A |
|---|---|
| Airport | Kuala Lumpur International Airport (WMKK) |
Arrival
| Time | 2026-04-30 21:35 |
|---|---|
| Airport | Melbourne Airport (YMML) |
| Time | Latitude | Longitude | Altitude | Speed | Heading |
|---|---|---|---|---|---|
| 2026-04-30 14:54 | 1.33036 | 103.06533 | 37391 ft | 484 kts | 123° |
| 2026-04-30 14:54 | 1.29320 | 103.12131 | 37951 ft | 482 kts | 123° |
| 2026-04-30 14:55 | 1.25620 | 103.17703 | 38509 ft | 480 kts | 123° |
| 2026-04-30 14:55 | 1.23776 | 103.20472 | 38738 ft | 478 kts | 123° |
| 2026-04-30 14:55 | 1.20106 | 103.25969 | 38902 ft | 479 kts | 124° |
| 2026-04-30 14:56 | 1.16413 | 103.31495 | 38905 ft | 478 kts | 124° |
| 2026-04-30 14:57 | 1.10882 | 103.39772 | 38903 ft | 477 kts | 124° |
| 2026-04-30 14:58 | 1.03319 | 103.50587 | 38909 ft | 476 kts | 132° |
| 2026-04-30 14:58 | 0.96499 | 103.57802 | 38909 ft | 476 kts | 134° |
| 2026-04-30 15:00 | 0.84995 | 103.69630 | 38914 ft | 474 kts | 134° |
| 2026-04-30 15:01 | 0.75889 | 103.79038 | 38922 ft | 472 kts | 134° |
| 2026-04-30 15:01 | 0.69046 | 103.86107 | 38928 ft | 471 kts | 134° |
| 2026-04-30 15:02 | 0.64517 | 103.90786 | 38931 ft | 471 kts | 134° |
| 2026-04-30 15:03 | 0.53129 | 104.02551 | 38931 ft | 471 kts | 133° |
| 2026-04-30 15:04 | 0.41789 | 104.14254 | 38930 ft | 470 kts | 133° |
| 2026-04-30 15:06 | 0.30444 | 104.25975 | 38935 ft | 469 kts | 133° |
| 2026-04-30 15:07 | 0.21399 | 104.35307 | 38935 ft | 469 kts | 133° |
| 2026-04-30 15:08 | 0.12336 | 104.44664 | 38936 ft | 468 kts | 133° |
| 2026-04-30 15:09 | 0.01066 | 104.56300 | 38944 ft | 467 kts | 133° |
| 2026-04-30 15:10 | -0.07961 | 104.65621 | 38945 ft | 466 kts | 133° |
| 2026-04-30 15:11 | -0.21452 | 104.79552 | 38939 ft | 466 kts | 133° |
| 2026-04-30 15:13 | -0.33519 | 104.90210 | 38940 ft | 467 kts | 144° |
| 2026-04-30 15:14 | -0.52307 | 105.02877 | 38944 ft | 466 kts | 144° |
| 2026-04-30 15:17 | -0.76378 | 105.19168 | 38944 ft | 464 kts | 144° |
| 2026-04-30 15:19 | -0.97725 | 105.33614 | 38930 ft | 464 kts | 144° |
| 2026-04-30 17:39 | -17.08540 | 115.69281 | 38990 ft | 513 kts | 144° |
| 2026-04-30 17:42 | -17.35947 | 115.93108 | 38993 ft | 513 kts | 144° |
| 2026-04-30 17:43 | -17.49676 | 116.05078 | 38995 ft | 514 kts | 145° |
| 2026-04-30 17:44 | -17.66116 | 116.19446 | 38994 ft | 514 kts | 145° |
| 2026-04-30 17:47 | -17.90788 | 116.41075 | 38992 ft | 514 kts | 145° |
| 2026-04-30 17:48 | -18.09954 | 116.57932 | 38995 ft | 514 kts | 145° |
| 2026-04-30 17:50 | -18.31840 | 116.77230 | 38996 ft | 514 kts | 145° |
| 2026-04-30 17:52 | -18.48265 | 116.91754 | 38989 ft | 514 kts | 145° |
| 2026-04-30 17:54 | -18.72817 | 117.13536 | 38988 ft | 514 kts | 146° |
| 2026-04-30 17:56 | -18.94689 | 117.33014 | 38980 ft | 514 kts | 146° |
| 2026-04-30 17:58 | -19.11046 | 117.47624 | 38983 ft | 514 kts | 146° |
| 2026-04-30 18:00 | -19.32843 | 117.67156 | 38967 ft | 514 kts | 146° |
| 2026-04-30 18:01 | -19.46473 | 117.79405 | 38971 ft | 514 kts | 146° |
| 2026-04-30 18:02 | -19.62775 | 117.94092 | 38971 ft | 514 kts | 146° |
| 2026-04-30 18:04 | -19.79061 | 118.08806 | 38977 ft | 514 kts | 146° |
| 2026-04-30 18:06 | -20.00778 | 118.28489 | 38974 ft | 514 kts | 146° |
| 2026-04-30 18:08 | -20.19767 | 118.45762 | 38971 ft | 514 kts | 147° |
| 2026-04-30 18:10 | -20.41231 | 118.65961 | 38970 ft | 520 kts | 141° |
| 2026-04-30 18:11 | -20.58872 | 118.85426 | 38973 ft | 522 kts | 141° |
| 2026-04-30 18:13 | -20.71446 | 118.99325 | 38980 ft | 522 kts | 141° |
| 2026-04-30 18:14 | -20.84055 | 119.13299 | 38978 ft | 523 kts | 141° |
| 2026-04-30 18:15 | -20.99154 | 119.30082 | 38984 ft | 523 kts | 141° |
| 2026-04-30 18:16 | -21.09215 | 119.41293 | 38986 ft | 524 kts | 141° |
| 2026-04-30 18:17 | -21.14260 | 119.46923 | 38986 ft | 524 kts | 141° |
| 2026-04-30 18:18 | -21.21830 | 119.55383 | 38988 ft | 525 kts | 141° |
| 2026-04-30 18:18 | -21.26881 | 119.61035 | 38987 ft | 525 kts | 141° |
| 2026-04-30 18:19 | -21.31902 | 119.66659 | 38984 ft | 525 kts | 141° |
| 2026-04-30 18:19 | -21.36952 | 119.72323 | 38990 ft | 526 kts | 141° |
| 2026-04-30 18:20 | -21.42005 | 119.77997 | 38987 ft | 526 kts | 141° |
| 2026-04-30 18:20 | -21.47056 | 119.83673 | 38985 ft | 526 kts | 141° |
| 2026-04-30 18:21 | -21.52070 | 119.89313 | 38986 ft | 526 kts | 141° |
| 2026-04-30 18:21 | -21.57121 | 119.95002 | 38992 ft | 526 kts | 141° |
| 2026-04-30 18:22 | -21.62170 | 120.00693 | 38991 ft | 526 kts | 141° |
| 2026-04-30 18:22 | -21.69719 | 120.09215 | 38994 ft | 527 kts | 142° |
| 2026-04-30 18:23 | -21.74769 | 120.14925 | 38994 ft | 527 kts | 142° |
| 2026-04-30 18:23 | -21.79826 | 120.20647 | 38995 ft | 527 kts | 142° |
| 2026-04-30 18:24 | -21.87406 | 120.29239 | 38994 ft | 528 kts | 142° |
| 2026-04-30 18:25 | -21.92428 | 120.34939 | 38992 ft | 528 kts | 142° |
| 2026-04-30 18:25 | -22.00012 | 120.43557 | 38994 ft | 529 kts | 142° |
| 2026-04-30 18:26 | -22.07602 | 120.52195 | 38990 ft | 529 kts | 142° |
| 2026-04-30 18:27 | -22.15157 | 120.60810 | 38988 ft | 530 kts | 142° |
| 2026-04-30 18:28 | -22.22752 | 120.69484 | 38987 ft | 530 kts | 142° |
| 2026-04-30 18:28 | -22.30316 | 120.78137 | 38983 ft | 531 kts | 142° |
| 2026-04-30 18:29 | -22.40447 | 120.89749 | 38987 ft | 531 kts | 142° |
| 2026-04-30 18:30 | -22.50583 | 121.01394 | 38981 ft | 532 kts | 142° |
| 2026-04-30 18:31 | -22.58148 | 121.10104 | 38979 ft | 532 kts | 142° |
| 2026-04-30 18:32 | -22.65753 | 121.18875 | 38979 ft | 532 kts | 142° |
| 2026-04-30 18:33 | -22.73353 | 121.27654 | 38977 ft | 533 kts | 142° |
| 2026-04-30 18:33 | -22.80918 | 121.36409 | 38988 ft | 533 kts | 142° |
| 2026-04-30 18:34 | -22.88511 | 121.45210 | 38980 ft | 533 kts | 142° |
| 2026-04-30 18:35 | -22.92719 | 121.50096 | 38972 ft | 533 kts | 142° |
| 2026-04-30 18:35 | -22.98601 | 121.56937 | 38978 ft | 533 kts | 142° |
| 2026-04-30 18:36 | -23.06191 | 121.65782 | 38978 ft | 534 kts | 142° |
| 2026-04-30 18:37 | -23.13787 | 121.74649 | 38977 ft | 535 kts | 142° |
| 2026-04-30 18:37 | -23.18821 | 121.80536 | 38973 ft | 535 kts | 142° |
| 2026-04-30 18:38 | -23.23066 | 121.85504 | 38971 ft | 536 kts | 142° |
| 2026-04-30 18:38 | -23.28961 | 121.92411 | 38971 ft | 536 kts | 142° |
| 2026-04-30 18:39 | -23.33169 | 121.97349 | 38970 ft | 536 kts | 142° |
| 2026-04-30 18:39 | -23.38242 | 122.03308 | 38971 ft | 536 kts | 141° |
| 2026-04-30 18:40 | -23.43308 | 122.09265 | 38973 ft | 537 kts | 141° |
| 2026-04-30 18:40 | -23.48348 | 122.15199 | 38973 ft | 537 kts | 141° |
| 2026-04-30 18:41 | -23.53423 | 122.21183 | 38972 ft | 537 kts | 141° |
| 2026-04-30 18:41 | -23.58494 | 122.27168 | 38967 ft | 538 kts | 141° |
| 2026-04-30 18:42 | -23.63565 | 122.33160 | 38964 ft | 538 kts | 141° |
| 2026-04-30 18:42 | -23.71136 | 122.42120 | 38967 ft | 538 kts | 141° |
| 2026-04-30 18:45 | -23.99019 | 122.75265 | 38970 ft | 540 kts | 141° |
| 2026-04-30 18:46 | -24.04095 | 122.81323 | 38967 ft | 541 kts | 141° |
| 2026-04-30 18:46 | -24.09182 | 122.87402 | 38966 ft | 541 kts | 141° |
| 2026-04-30 18:47 | -24.14226 | 122.93437 | 38963 ft | 541 kts | 141° |
| 2026-04-30 18:47 | -24.19311 | 122.99529 | 38969 ft | 542 kts | 141° |
| 2026-04-30 18:48 | -24.24389 | 123.05621 | 38968 ft | 542 kts | 141° |
| 2026-04-30 18:48 | -24.29478 | 123.11734 | 38968 ft | 542 kts | 141° |
| 2026-04-30 18:49 | -24.34529 | 123.17808 | 38970 ft | 543 kts | 141° |
| 2026-04-30 18:49 | -24.39610 | 123.23927 | 38965 ft | 543 kts | 141° |
| 2026-04-30 18:50 | -24.44702 | 123.30069 | 38966 ft | 544 kts | 141° |
| 2026-04-30 18:50 | -24.49793 | 123.36216 | 38968 ft | 544 kts | 141° |
| 2026-04-30 18:51 | -24.54888 | 123.42375 | 38967 ft | 545 kts | 141° |
| 2026-04-30 18:51 | -24.59947 | 123.48499 | 38968 ft | 545 kts | 141° |
| 2026-04-30 18:52 | -24.65043 | 123.54677 | 38968 ft | 546 kts | 141° |
| 2026-04-30 18:52 | -24.70140 | 123.60864 | 38963 ft | 547 kts | 140° |
| 2026-04-30 18:53 | -24.75246 | 123.67070 | 38963 ft | 547 kts | 140° |
| 2026-04-30 18:53 | -24.80318 | 123.73245 | 38967 ft | 548 kts | 140° |
| 2026-04-30 18:54 | -24.85427 | 123.79471 | 38969 ft | 548 kts | 140° |
| 2026-04-30 18:54 | -24.90537 | 123.85706 | 38964 ft | 549 kts | 140° |
| 2026-04-30 18:55 | -24.95656 | 123.91961 | 38967 ft | 550 kts | 140° |
| 2026-04-30 18:55 | -25.03304 | 124.01322 | 38959 ft | 551 kts | 140° |
| 2026-04-30 18:56 | -25.11000 | 124.10762 | 38966 ft | 552 kts | 140° |
| 2026-04-30 18:57 | -25.18694 | 124.20218 | 38967 ft | 553 kts | 140° |
| 2026-04-30 18:57 | -25.23797 | 124.26500 | 38962 ft | 553 kts | 140° |
| 2026-04-30 18:58 | -25.31507 | 124.36008 | 38964 ft | 554 kts | 140° |
| 2026-04-30 18:59 | -25.39214 | 124.45532 | 38964 ft | 554 kts | 140° |
| 2026-04-30 19:00 | -25.49458 | 124.58224 | 38967 ft | 555 kts | 140° |
| 2026-04-30 19:01 | -25.59743 | 124.70996 | 38962 ft | 556 kts | 140° |
| 2026-04-30 19:02 | -25.67426 | 124.80562 | 38963 ft | 557 kts | 140° |
| 2026-04-30 19:03 | -25.77714 | 124.93404 | 38962 ft | 557 kts | 140° |
| 2026-04-30 19:04 | -25.87998 | 125.06280 | 38961 ft | 558 kts | 139° |
| 2026-04-30 19:05 | -25.98249 | 125.19151 | 38970 ft | 558 kts | 139° |
| 2026-04-30 19:06 | -26.08521 | 125.32083 | 38966 ft | 558 kts | 139° |
| 2026-04-30 19:06 | -26.16186 | 125.41757 | 38971 ft | 558 kts | 139° |
| 2026-04-30 19:07 | -26.23877 | 125.51485 | 38971 ft | 558 kts | 139° |
| 2026-04-30 19:08 | -26.34098 | 125.64446 | 38966 ft | 559 kts | 139° |
| 2026-04-30 19:09 | -26.41789 | 125.74223 | 38968 ft | 559 kts | 139° |
| 2026-04-30 19:09 | -26.46918 | 125.80756 | 38965 ft | 559 kts | 139° |
| 2026-04-30 19:10 | -26.57129 | 125.93790 | 38964 ft | 560 kts | 139° |
| 2026-04-30 19:11 | -26.64811 | 126.03622 | 38961 ft | 560 kts | 139° |
| 2026-04-30 19:12 | -26.69930 | 126.10185 | 38962 ft | 560 kts | 138° |
| 2026-04-30 19:12 | -26.75053 | 126.16763 | 38963 ft | 560 kts | 138° |
| 2026-04-30 19:13 | -26.85253 | 126.29890 | 38964 ft | 561 kts | 138° |
| 2026-04-30 19:14 | -26.90366 | 126.36484 | 38965 ft | 561 kts | 138° |
| 2026-04-30 19:14 | -26.95479 | 126.43089 | 38967 ft | 561 kts | 138° |
| 2026-04-30 19:15 | -27.00585 | 126.49695 | 38963 ft | 561 kts | 138° |
| 2026-04-30 19:15 | -27.08214 | 126.59585 | 38961 ft | 561 kts | 137° |
| 2026-04-30 19:16 | -27.13315 | 126.66208 | 38964 ft | 561 kts | 137° |
| 2026-04-30 19:17 | -27.20963 | 126.76159 | 38963 ft | 561 kts | 137° |
| 2026-04-30 19:17 | -27.28568 | 126.86077 | 38963 ft | 561 kts | 137° |
| 2026-04-30 19:18 | -27.36207 | 126.96070 | 38952 ft | 561 kts | 137° |
| 2026-04-30 19:19 | -27.41287 | 127.02731 | 38954 ft | 561 kts | 137° |
| 2026-04-30 19:19 | -27.48871 | 127.12694 | 38955 ft | 561 kts | 137° |
| 2026-04-30 19:20 | -27.53946 | 127.19375 | 38956 ft | 561 kts | 137° |
| 2026-04-30 19:21 | -27.61547 | 127.29401 | 38953 ft | 561 kts | 136° |
| 2026-04-30 19:22 | -27.71631 | 127.42736 | 38954 ft | 560 kts | 136° |
| 2026-04-30 19:23 | -27.86728 | 127.62781 | 38951 ft | 559 kts | 136° |
| 2026-04-30 19:24 | -27.94277 | 127.72838 | 38953 ft | 559 kts | 136° |
| 2026-04-30 19:25 | -28.06830 | 127.89617 | 38954 ft | 558 kts | 136° |
| 2026-04-30 19:26 | -28.16812 | 128.03006 | 38948 ft | 558 kts | 135° |
| 2026-04-30 19:27 | -28.24308 | 128.13089 | 38947 ft | 558 kts | 135° |
| 2026-04-30 19:28 | -28.31797 | 128.23186 | 38945 ft | 557 kts | 135° |
| 2026-04-30 19:29 | -28.41726 | 128.36611 | 38929 ft | 557 kts | 135° |
| 2026-04-30 19:30 | -28.51665 | 128.50092 | 38937 ft | 556 kts | 135° |
| 2026-04-30 19:31 | -28.61546 | 128.63538 | 38937 ft | 555 kts | 134° |
| 2026-04-30 19:31 | -28.68968 | 128.73667 | 38933 ft | 555 kts | 134° |
| 2026-04-30 19:32 | -28.73908 | 128.80421 | 38936 ft | 555 kts | 134° |
| 2026-04-30 19:32 | -28.78811 | 128.87136 | 38933 ft | 554 kts | 134° |
| 2026-04-30 19:33 | -28.83736 | 128.93893 | 38935 ft | 554 kts | 134° |
| 2026-04-30 19:33 | -28.88662 | 129.00662 | 38936 ft | 554 kts | 134° |
| 2026-04-30 19:34 | -28.93576 | 129.07421 | 38933 ft | 554 kts | 134° |
| 2026-04-30 19:35 | -29.00954 | 129.17573 | 38931 ft | 554 kts | 134° |
| 2026-04-30 19:35 | -29.05837 | 129.24307 | 38930 ft | 553 kts | 134° |
| 2026-04-30 19:36 | -29.10740 | 129.31084 | 38928 ft | 553 kts | 133° |
| 2026-04-30 19:36 | -29.18093 | 129.41267 | 38930 ft | 553 kts | 133° |
| 2026-04-30 19:37 | -29.22950 | 129.48007 | 38925 ft | 553 kts | 133° |
| 2026-04-30 19:37 | -29.27836 | 129.54799 | 38925 ft | 553 kts | 133° |
| 2026-04-30 19:38 | -29.32721 | 129.61601 | 38929 ft | 552 kts | 133° |
| 2026-04-30 19:38 | -29.37599 | 129.68403 | 38923 ft | 552 kts | 133° |
| 2026-04-30 19:39 | -29.42473 | 129.75213 | 38926 ft | 552 kts | 133° |
| 2026-04-30 19:39 | -29.47310 | 129.81980 | 38924 ft | 552 kts | 133° |
| 2026-04-30 19:40 | -29.52170 | 129.88793 | 38924 ft | 552 kts | 133° |
| 2026-04-30 19:40 | -29.57031 | 129.95618 | 38923 ft | 552 kts | 132° |
| 2026-04-30 19:41 | -29.61887 | 130.02446 | 38926 ft | 552 kts | 132° |
| 2026-04-30 19:41 | -29.66736 | 130.09277 | 38925 ft | 552 kts | 132° |
| 2026-04-30 19:42 | -29.71554 | 130.16075 | 38927 ft | 552 kts | 132° |
| 2026-04-30 19:42 | -29.76392 | 130.22915 | 38926 ft | 552 kts | 132° |
| 2026-04-30 19:43 | -29.81235 | 130.29770 | 38926 ft | 551 kts | 132° |
| 2026-04-30 19:44 | -29.88450 | 130.40008 | 38926 ft | 551 kts | 132° |
| 2026-04-30 19:44 | -29.93277 | 130.46872 | 38929 ft | 551 kts | 132° |
| 2026-04-30 19:45 | -29.98097 | 130.53737 | 38929 ft | 551 kts | 131° |
| 2026-04-30 19:45 | -30.02916 | 130.60613 | 38929 ft | 551 kts | 131° |
| 2026-04-30 19:46 | -30.07725 | 130.67486 | 38930 ft | 551 kts | 131° |
| 2026-04-30 19:46 | -30.12505 | 130.74328 | 38929 ft | 551 kts | 131° |
| 2026-04-30 19:47 | -30.17315 | 130.81226 | 38928 ft | 551 kts | 131° |
| 2026-04-30 19:47 | -30.22115 | 130.88122 | 38930 ft | 551 kts | 131° |
| 2026-04-30 19:48 | -30.26918 | 130.95034 | 38927 ft | 551 kts | 131° |
| 2026-04-30 19:48 | -30.31687 | 131.01909 | 38933 ft | 551 kts | 131° |
| 2026-04-30 19:49 | -30.36477 | 131.08826 | 38930 ft | 551 kts | 131° |
| 2026-04-30 19:49 | -30.43667 | 131.19232 | 38935 ft | 551 kts | 131° |
| 2026-04-30 19:50 | -30.48452 | 131.26171 | 38934 ft | 551 kts | 131° |
| 2026-04-30 19:50 | -30.53194 | 131.33062 | 38935 ft | 551 kts | 131° |
| 2026-04-30 19:51 | -30.57972 | 131.40014 | 38932 ft | 551 kts | 131° |
| 2026-04-30 19:51 | -30.62740 | 131.46967 | 38933 ft | 550 kts | 130° |
| 2026-04-30 19:52 | -30.67506 | 131.53929 | 38933 ft | 550 kts | 130° |
| 2026-04-30 19:52 | -30.72232 | 131.60844 | 38935 ft | 550 kts | 130° |
| 2026-04-30 19:53 | -30.76992 | 131.67820 | 38936 ft | 550 kts | 130° |
| 2026-04-30 19:53 | -30.81739 | 131.74791 | 38939 ft | 550 kts | 130° |
| 2026-04-30 19:54 | -30.86490 | 131.81780 | 38941 ft | 550 kts | 130° |
| 2026-04-30 19:54 | -30.91223 | 131.88776 | 38942 ft | 550 kts | 130° |
| 2026-04-30 19:55 | -30.95925 | 131.95737 | 38943 ft | 550 kts | 130° |
| 2026-04-30 19:55 | -31.00652 | 132.02746 | 38944 ft | 550 kts | 130° |
| 2026-04-30 19:56 | -31.05376 | 132.09765 | 38940 ft | 550 kts | 130° |
| 2026-04-30 19:56 | -31.10063 | 132.16742 | 38946 ft | 550 kts | 130° |
| 2026-04-30 19:57 | -31.14774 | 132.23764 | 38949 ft | 550 kts | 130° |
| 2026-04-30 19:57 | -31.19483 | 132.30800 | 38949 ft | 550 kts | 130° |
| 2026-04-30 19:58 | -31.24191 | 132.37845 | 38951 ft | 550 kts | 130° |
| 2026-04-30 19:58 | -31.28891 | 132.44892 | 38954 ft | 549 kts | 130° |
| 2026-04-30 19:59 | -31.33581 | 132.51935 | 38955 ft | 549 kts | 130° |
| 2026-04-30 20:00 | -31.40581 | 132.62471 | 38957 ft | 549 kts | 130° |
| 2026-04-30 20:00 | -31.45257 | 132.69526 | 38957 ft | 548 kts | 129° |
| 2026-04-30 20:01 | -31.52231 | 132.80073 | 38960 ft | 548 kts | 129° |
| 2026-04-30 20:01 | -31.56894 | 132.87139 | 38962 ft | 548 kts | 129° |
| 2026-04-30 20:02 | -31.63883 | 132.97756 | 38965 ft | 548 kts | 129° |
| 2026-04-30 20:03 | -31.70854 | 133.08375 | 38966 ft | 547 kts | 129° |
| 2026-04-30 20:03 | -31.75464 | 133.15413 | 38968 ft | 547 kts | 129° |
| 2026-04-30 20:04 | -31.80095 | 133.22497 | 38971 ft | 547 kts | 129° |
| 2026-04-30 20:05 | -31.87036 | 133.33139 | 38971 ft | 546 kts | 129° |
| 2026-04-30 20:05 | -31.93925 | 133.43729 | 38975 ft | 546 kts | 129° |
| 2026-04-30 20:06 | -31.98533 | 133.50831 | 38979 ft | 545 kts | 129° |
| 2026-04-30 20:06 | -32.03130 | 133.57927 | 38978 ft | 545 kts | 129° |
| 2026-04-30 20:07 | -32.07723 | 133.65032 | 38983 ft | 544 kts | 129° |
| 2026-04-30 20:08 | -32.14561 | 133.75650 | 38981 ft | 544 kts | 128° |
| 2026-04-30 20:08 | -32.19063 | 133.82817 | 38980 ft | 544 kts | 128° |
| 2026-04-30 20:09 | -32.23543 | 133.90003 | 38980 ft | 543 kts | 128° |
| 2026-04-30 20:09 | -32.30269 | 134.00780 | 38985 ft | 543 kts | 128° |
| 2026-04-30 20:10 | -32.36953 | 134.11498 | 38988 ft | 542 kts | 128° |
| 2026-04-30 20:11 | -32.43652 | 134.22269 | 38994 ft | 541 kts | 128° |
| 2026-04-30 20:11 | -32.48106 | 134.29451 | 38990 ft | 541 kts | 128° |
| 2026-04-30 20:12 | -32.54748 | 134.40182 | 39009 ft | 541 kts | 127° |
| 2026-04-30 20:13 | -32.59190 | 134.47378 | 39010 ft | 540 kts | 127° |
| 2026-04-30 20:13 | -32.63621 | 134.54570 | 39010 ft | 540 kts | 127° |
| 2026-04-30 20:14 | -32.68051 | 134.61772 | 39016 ft | 540 kts | 127° |
| 2026-04-30 20:14 | -32.72442 | 134.68927 | 39020 ft | 539 kts | 127° |
| 2026-04-30 20:15 | -32.76856 | 134.76131 | 39023 ft | 539 kts | 127° |
| 2026-04-30 20:15 | -32.81263 | 134.83339 | 39006 ft | 539 kts | 127° |
| 2026-04-30 20:16 | -32.85666 | 134.90552 | 39011 ft | 539 kts | 127° |
| 2026-04-30 20:16 | -32.90062 | 134.97770 | 39014 ft | 538 kts | 127° |
| 2026-04-30 20:17 | -32.94419 | 135.04936 | 39015 ft | 538 kts | 127° |
| 2026-04-30 20:17 | -32.98803 | 135.12162 | 39017 ft | 538 kts | 127° |
| 2026-04-30 20:18 | -33.03172 | 135.19401 | 39023 ft | 538 kts | 127° |
| 2026-04-30 20:18 | -33.07503 | 135.26661 | 39020 ft | 538 kts | 126° |
| 2026-04-30 20:19 | -33.11801 | 135.33881 | 39027 ft | 537 kts | 126° |
| 2026-04-30 20:19 | -33.16131 | 135.41157 | 39034 ft | 537 kts | 126° |
| 2026-04-30 20:20 | -33.20458 | 135.48437 | 39033 ft | 537 kts | 126° |
| 2026-04-30 20:20 | -33.24779 | 135.55718 | 39034 ft | 537 kts | 126° |
| 2026-04-30 20:21 | -33.29063 | 135.62953 | 39039 ft | 537 kts | 126° |
| 2026-04-30 20:21 | -33.33375 | 135.70250 | 39043 ft | 537 kts | 126° |
| 2026-04-30 20:22 | -33.37676 | 135.77544 | 39049 ft | 537 kts | 126° |
| 2026-04-30 20:22 | -33.41972 | 135.84843 | 39054 ft | 537 kts | 126° |
| 2026-04-30 20:23 | -33.46243 | 135.92096 | 39065 ft | 536 kts | 126° |
| 2026-04-30 20:23 | -33.50554 | 135.99392 | 39050 ft | 536 kts | 126° |
| 2026-04-30 20:24 | -33.54859 | 136.06691 | 39053 ft | 536 kts | 126° |
| 2026-04-30 20:24 | -33.59151 | 136.13986 | 39056 ft | 536 kts | 126° |
| 2026-04-30 20:25 | -33.65583 | 136.24951 | 39066 ft | 535 kts | 126° |
| 2026-04-30 20:26 | -33.71962 | 136.35860 | 39060 ft | 535 kts | 126° |
| 2026-04-30 20:26 | -33.78357 | 136.46829 | 39058 ft | 534 kts | 126° |
| 2026-04-30 20:27 | -33.86840 | 136.61427 | 39056 ft | 534 kts | 126° |
| 2026-04-30 20:28 | -33.95317 | 136.76076 | 39066 ft | 533 kts | 126° |
| 2026-04-30 20:30 | -34.05855 | 136.94370 | 39067 ft | 532 kts | 125° |
| 2026-04-30 20:31 | -34.18471 | 137.16389 | 39066 ft | 531 kts | 125° |
| 2026-04-30 20:32 | -34.28895 | 137.34693 | 39079 ft | 530 kts | 125° |
| 2026-04-30 20:33 | -34.35152 | 137.45721 | 39080 ft | 530 kts | 125° |
| 2026-04-30 20:34 | -34.41365 | 137.56707 | 39092 ft | 530 kts | 125° |
| 2026-04-30 20:35 | -34.47593 | 137.67753 | 39085 ft | 529 kts | 124° |
| 2026-04-30 20:35 | -34.53816 | 137.78825 | 39087 ft | 530 kts | 124° |
| 2026-04-30 20:36 | -34.57929 | 137.86160 | 39093 ft | 530 kts | 124° |
| 2026-04-30 20:37 | -34.64140 | 137.97263 | 39097 ft | 530 kts | 124° |
| 2026-04-30 20:37 | -34.68269 | 138.04670 | 39098 ft | 530 kts | 124° |
| 2026-04-30 20:38 | -34.72399 | 138.12094 | 39097 ft | 530 kts | 124° |
| 2026-04-30 20:38 | -34.76496 | 138.19470 | 39100 ft | 530 kts | 124° |
| 2026-04-30 20:39 | -34.82677 | 138.30629 | 39108 ft | 530 kts | 124° |
| 2026-04-30 20:40 | -34.88854 | 138.41814 | 39103 ft | 530 kts | 124° |
| 2026-04-30 20:40 | -34.92961 | 138.49280 | 39099 ft | 530 kts | 124° |
| 2026-04-30 20:41 | -34.96180 | 138.57266 | 39102 ft | 529 kts | 111° |
| 2026-04-30 20:41 | -34.97513 | 138.61437 | 39105 ft | 528 kts | 110° |
| 2026-04-30 20:41 | -35.00062 | 138.69836 | 39115 ft | 528 kts | 109° |
| 2026-04-30 20:42 | -35.02579 | 138.78249 | 39120 ft | 527 kts | 109° |
| 2026-04-30 20:43 | -35.06370 | 138.90838 | 39132 ft | 526 kts | 109° |
| 2026-04-30 20:43 | -35.08881 | 138.99167 | 39124 ft | 526 kts | 109° |
| 2026-04-30 20:44 | -35.12660 | 139.11741 | 39139 ft | 525 kts | 109° |
| 2026-04-30 20:45 | -35.17649 | 139.28437 | 39143 ft | 525 kts | 109° |
| 2026-04-30 20:45 | -35.20148 | 139.36838 | 39145 ft | 525 kts | 109° |
| 2026-04-30 20:46 | -35.25141 | 139.53617 | 39149 ft | 525 kts | 111° |
| 2026-04-30 20:47 | -35.29680 | 139.65764 | 39156 ft | 525 kts | 115° |
| 2026-04-30 20:48 | -35.34344 | 139.77893 | 39161 ft | 525 kts | 114° |
| 2026-04-30 20:48 | -35.37368 | 139.86029 | 39168 ft | 524 kts | 114° |
| 2026-04-30 20:49 | -35.40368 | 139.94177 | 39166 ft | 524 kts | 114° |
| 2026-04-30 20:50 | -35.44834 | 140.06341 | 39172 ft | 524 kts | 114° |
| 2026-04-30 20:50 | -35.47820 | 140.14489 | 39175 ft | 524 kts | 114° |
| 2026-04-30 20:51 | -35.50799 | 140.22635 | 39179 ft | 523 kts | 114° |
| 2026-04-30 20:51 | -35.55256 | 140.34864 | 39184 ft | 523 kts | 114° |
| 2026-04-30 20:52 | -35.58199 | 140.42967 | 39184 ft | 523 kts | 114° |
| 2026-04-30 20:53 | -35.62630 | 140.55204 | 39192 ft | 522 kts | 114° |
| 2026-04-30 20:53 | -35.65574 | 140.63362 | 39194 ft | 522 kts | 114° |
| 2026-04-30 20:54 | -35.69959 | 140.75552 | 39199 ft | 522 kts | 114° |
| 2026-04-30 20:55 | -35.74348 | 140.87800 | 39203 ft | 521 kts | 113° |
| 2026-04-30 20:55 | -35.77263 | 140.95963 | 39209 ft | 521 kts | 113° |
| 2026-04-30 20:56 | -35.81607 | 141.08164 | 39214 ft | 521 kts | 113° |
| 2026-04-30 20:57 | -35.85954 | 141.20425 | 39215 ft | 520 kts | 113° |
| 2026-04-30 20:57 | -35.88846 | 141.28608 | 39219 ft | 520 kts | 113° |
| 2026-04-30 20:58 | -35.93153 | 141.40836 | 39220 ft | 521 kts | 113° |
| 2026-04-30 20:58 | -35.96028 | 141.49026 | 39225 ft | 520 kts | 113° |
| 2026-04-30 20:59 | -36.00334 | 141.61333 | 39230 ft | 520 kts | 113° |
| 2026-04-30 21:00 | -36.06036 | 141.77703 | 39233 ft | 520 kts | 113° |
| 2026-04-30 21:01 | -36.10310 | 141.90033 | 39234 ft | 520 kts | 113° |
| 2026-04-30 21:02 | -36.14570 | 142.02372 | 39238 ft | 520 kts | 113° |
| 2026-04-30 21:02 | -36.17380 | 142.10543 | 39240 ft | 520 kts | 112° |
| 2026-04-30 21:03 | -36.20205 | 142.18777 | 39246 ft | 519 kts | 112° |
| 2026-04-30 21:03 | -36.23022 | 142.27008 | 39241 ft | 519 kts | 112° |
| 2026-04-30 21:04 | -36.25836 | 142.35252 | 39244 ft | 519 kts | 112° |
| 2026-04-30 21:04 | -36.30021 | 142.47557 | 39252 ft | 519 kts | 112° |
| 2026-04-30 21:05 | -36.32816 | 142.55802 | 39254 ft | 519 kts | 112° |
| 2026-04-30 21:05 | -36.35606 | 142.64058 | 39261 ft | 519 kts | 112° |
| 2026-04-30 21:06 | -36.38391 | 142.72319 | 39260 ft | 519 kts | 112° |
| 2026-04-30 21:06 | -36.40702 | 142.79192 | 39263 ft | 519 kts | 112° |
| 2026-04-30 21:07 | -36.43922 | 142.88800 | 39264 ft | 519 kts | 112° |
| 2026-04-30 21:07 | -36.46677 | 142.97060 | 39151 ft | 515 kts | 112° |
| 2026-04-30 21:08 | -36.47581 | 142.99771 | 38969 ft | 510 kts | 112° |
| 2026-04-30 21:08 | -36.48928 | 143.03813 | 38506 ft | 506 kts | 112° |
| 2026-04-30 21:08 | -36.50729 | 143.09228 | 37558 ft | 507 kts | 112° |
| 2026-04-30 21:08 | -36.52058 | 143.13232 | 36902 ft | 507 kts | 112° |
| 2026-04-30 21:09 | -36.53417 | 143.17331 | 36225 ft | 507 kts | 112° |
| 2026-04-30 21:09 | -36.54743 | 143.21338 | 35558 ft | 508 kts | 112° |
| 2026-04-30 21:09 | -36.56087 | 143.25406 | 34852 ft | 509 kts | 112° |
| 2026-04-30 21:09 | -36.56979 | 143.28109 | 34340 ft | 510 kts | 112° |
| 2026-04-30 21:10 | -36.58327 | 143.32200 | 33528 ft | 510 kts | 112° |
| 2026-04-30 21:10 | -36.59663 | 143.36261 | 33024 ft | 504 kts | 112° |
| 2026-04-30 21:10 | -36.60981 | 143.40272 | 32473 ft | 499 kts | 112° |
| 2026-04-30 21:10 | -36.62288 | 143.44255 | 31916 ft | 494 kts | 112° |
| 2026-04-30 21:11 | -36.63580 | 143.48198 | 31375 ft | 490 kts | 112° |
| 2026-04-30 21:11 | -36.64860 | 143.52108 | 30832 ft | 486 kts | 112° |
| 2026-04-30 21:11 | -36.66126 | 143.55982 | 30294 ft | 482 kts | 112° |
| 2026-04-30 21:11 | -36.67789 | 143.61069 | 29534 ft | 475 kts | 112° |
| 2026-04-30 21:12 | -36.68612 | 143.63591 | 29190 ft | 472 kts | 112° |
| 2026-04-30 21:12 | -36.69839 | 143.67350 | 28669 ft | 466 kts | 112° |
| 2026-04-30 21:12 | -36.71051 | 143.71074 | 28146 ft | 461 kts | 112° |
| 2026-04-30 21:12 | -36.72249 | 143.74758 | 27645 ft | 457 kts | 111° |
| 2026-04-30 21:13 | -36.73435 | 143.78411 | 27123 ft | 452 kts | 111° |
| 2026-04-30 21:13 | -36.74607 | 143.82026 | 26615 ft | 448 kts | 111° |
| 2026-04-30 21:13 | -36.75772 | 143.85623 | 26093 ft | 445 kts | 111° |
| 2026-04-30 21:13 | -36.76922 | 143.89180 | 25599 ft | 441 kts | 111° |
| 2026-04-30 21:14 | -36.78433 | 143.93861 | 24909 ft | 437 kts | 111° |
| 2026-04-30 21:14 | -36.79184 | 143.96189 | 24569 ft | 435 kts | 111° |
| 2026-04-30 21:14 | -36.80309 | 143.99682 | 24056 ft | 433 kts | 110° |
| 2026-04-30 21:14 | -36.81428 | 144.03160 | 23480 ft | 431 kts | 110° |
| 2026-04-30 21:15 | -36.82537 | 144.06613 | 22948 ft | 427 kts | 110° |
| 2026-04-30 21:15 | -36.83637 | 144.10041 | 22427 ft | 423 kts | 110° |
| 2026-04-30 21:15 | -36.84725 | 144.13436 | 21910 ft | 420 kts | 110° |
| 2026-04-30 21:15 | -36.86151 | 144.17890 | 21223 ft | 415 kts | 110° |
| 2026-04-30 21:16 | -36.86872 | 144.20146 | 20874 ft | 413 kts | 110° |
| 2026-04-30 21:16 | -36.87933 | 144.23468 | 20366 ft | 410 kts | 110° |
| 2026-04-30 21:16 | -36.88971 | 144.26722 | 19853 ft | 407 kts | 110° |
| 2026-04-30 21:16 | -36.90014 | 144.29994 | 19352 ft | 404 kts | 110° |
| 2026-04-30 21:17 | -36.91051 | 144.33252 | 18845 ft | 402 kts | 110° |
| 2026-04-30 21:17 | -36.92100 | 144.36468 | 18293 ft | 399 kts | 112° |
| 2026-04-30 21:17 | -36.93523 | 144.39424 | 17808 ft | 396 kts | 126° |
| 2026-04-30 21:17 | -36.95253 | 144.42092 | 17320 ft | 394 kts | 129° |
| 2026-04-30 21:18 | -36.97032 | 144.44684 | 16804 ft | 391 kts | 130° |
| 2026-04-30 21:18 | -36.98810 | 144.47248 | 16307 ft | 389 kts | 130° |
| 2026-04-30 21:18 | -37.00558 | 144.49760 | 15804 ft | 387 kts | 130° |
| 2026-04-30 21:18 | -37.02320 | 144.52290 | 15325 ft | 385 kts | 130° |
| 2026-04-30 21:19 | -37.04077 | 144.54812 | 14820 ft | 383 kts | 130° |
| 2026-04-30 21:19 | -37.05822 | 144.57317 | 14319 ft | 381 kts | 130° |
| 2026-04-30 21:19 | -37.07555 | 144.59805 | 13778 ft | 378 kts | 130° |
| 2026-04-30 21:19 | -37.09274 | 144.62271 | 13294 ft | 374 kts | 130° |
| 2026-04-30 21:20 | -37.10976 | 144.64716 | 12809 ft | 371 kts | 130° |
| 2026-04-30 21:20 | -37.12661 | 144.67139 | 12315 ft | 367 kts | 130° |
| 2026-04-30 21:20 | -37.14313 | 144.69516 | 11856 ft | 365 kts | 129° |
| 2026-04-30 21:20 | -37.16034 | 144.71831 | 11363 ft | 362 kts | 137° |
| 2026-04-30 21:21 | -37.18169 | 144.73460 | 10903 ft | 360 kts | 159° |
| 2026-04-30 21:21 | -37.20568 | 144.74249 | 10599 ft | 351 kts | 168° |
| 2026-04-30 21:21 | -37.25178 | 144.75417 | 10214 ft | 326 kts | 169° |
| 2026-04-30 21:22 | -37.27365 | 144.75984 | 9969 ft | 316 kts | 168° |
| 2026-04-30 21:22 | -37.33690 | 144.77657 | 8906 ft | 308 kts | 168° |
| 2026-04-30 21:23 | -37.35802 | 144.78105 | 8691 ft | 308 kts | 173° |
| 2026-04-30 21:23 | -37.37928 | 144.78441 | 8476 ft | 307 kts | 174° |
| 2026-04-30 21:23 | -37.42149 | 144.79130 | 8031 ft | 305 kts | 173° |
| 2026-04-30 21:24 | -37.44253 | 144.79490 | 7804 ft | 305 kts | 173° |
| 2026-04-30 21:24 | -37.46366 | 144.79589 | 7581 ft | 303 kts | 190° |
| 2026-04-30 21:24 | -37.48355 | 144.78909 | 7373 ft | 299 kts | 203° |
| 2026-04-30 21:24 | -37.50298 | 144.77978 | 7154 ft | 299 kts | 205° |
| 2026-04-30 21:25 | -37.54168 | 144.76095 | 6723 ft | 298 kts | 205° |
| 2026-04-30 21:25 | -37.56104 | 144.75166 | 6501 ft | 297 kts | 205° |
| 2026-04-30 21:25 | -37.58036 | 144.74254 | 6281 ft | 296 kts | 203° |
| 2026-04-30 21:26 | -37.62162 | 144.73540 | 5863 ft | 301 kts | 185° |
| 2026-04-30 21:26 | -37.64253 | 144.73410 | 5637 ft | 301 kts | 185° |
| 2026-04-30 21:27 | -37.68388 | 144.73140 | 5206 ft | 298 kts | 185° |
| 2026-04-30 21:27 | -37.70460 | 144.72998 | 4993 ft | 298 kts | 185° |
| 2026-04-30 21:27 | -37.72501 | 144.72908 | 4831 ft | 288 kts | 182° |
| 2026-04-30 21:28 | -37.76400 | 144.72895 | 4404 ft | 275 kts | 182° |
| 2026-04-30 21:28 | -37.78300 | 144.72885 | 4185 ft | 273 kts | 182° |
| 2026-04-30 21:28 | -37.81933 | 144.73595 | 3830 ft | 262 kts | 144° |
| 2026-04-30 21:29 | -37.83100 | 144.75235 | 3719 ft | 244 kts | 115° |
| 2026-04-30 21:29 | -37.84238 | 144.80772 | 3251 ft | 203 kts | 72° |
| 2026-04-30 21:30 | -37.83790 | 144.84162 | 2973 ft | 189 kts | 69° |
| 2026-04-30 21:31 | -37.81075 | 144.86327 | 2911 ft | 161 kts | 358° |
| 2026-04-30 21:31 | -37.79019 | 144.86009 | 2462 ft | 136 kts | 353° |
| 2026-04-30 21:32 | -37.77324 | 144.85734 | 2122 ft | 114 kts | 352° |
| 2026-04-30 21:32 | -37.76552 | 144.85583 | 1969 ft | 113 kts | 355° |
| 2026-04-30 21:32 | -37.75772 | 144.85443 | 1825 ft | 114 kts | 354° |
| 2026-04-30 21:32 | -37.74982 | 144.85296 | 1676 ft | 115 kts | 353° |
| 2026-04-30 21:33 | -37.74189 | 144.85149 | 1510 ft | 118 kts | 352° |
| 2026-04-30 21:33 | -37.72562 | 144.84842 | 1207 ft | 118 kts | 354° |
| 2026-04-30 21:33 | -37.71728 | 144.84681 | 1042 ft | 123 kts | 353° |
| 2026-04-30 21:34 | -37.70890 | 144.84516 | 836 ft | 121 kts | 353° |
| 2026-04-30 21:34 | -37.69189 | 144.84200 | 531 ft | 124 kts | 355° |
| 2026-04-30 21:34 | -37.68345 | 144.84050 | 390 ft | 121 kts | 355° |
| 2026-04-30 21:35 | -37.67551 | 144.83906 | 373 ft | 108 kts | 353° |
| 2026-04-30 21:35 | -37.66935 | 144.83793 | 393 ft | 72 kts | 351° |
| 2026-04-30 21:35 | -37.66622 | 144.83734 | 405 ft | 16 kts | 352° |
| 2026-04-30 21:35 | -37.66529 | 144.83767 | 409 ft | 14 kts | 53° |
| 2026-04-30 21:36 | -37.66507 | 144.83864 | 410 ft | 11 kts | 90° |
| 2026-04-30 21:36 | -37.66512 | 144.83930 | 410 ft | 0 kts | 95° |
| 2026-04-30 21:37 | -37.66512 | 144.83932 | 410 ft | 1 kts | 95° |
| 2026-04-30 21:37 | -37.66515 | 144.83976 | 410 ft | 8 kts | 95° |
| 2026-04-30 21:37 | -37.66522 | 144.84066 | 410 ft | 12 kts | 103° |
| 2026-04-30 21:38 | -37.66589 | 144.84151 | 407 ft | 17 kts | 160° |
| 2026-04-30 21:38 | -37.66684 | 144.84185 | 402 ft | 11 kts | 139° |
| 2026-04-30 21:38 | -37.66691 | 144.84288 | 399 ft | 13 kts | 82° |
| 2026-04-30 21:38 | -37.66678 | 144.84405 | 400 ft | 13 kts | 81° |
| 2026-04-30 21:39 | -37.66667 | 144.84488 | 405 ft | 7 kts | 80° |
| 2026-04-30 21:39 | -37.66658 | 144.84557 | 406 ft | 9 kts | 82° |
| 2026-04-30 21:39 | -37.66650 | 144.84633 | 407 ft | 9 kts | 82° |
| 2026-04-30 21:39 | -37.66641 | 144.84712 | 408 ft | 8 kts | 82° |
| 2026-04-30 21:40 | -37.66638 | 144.84748 | 408 ft | 0 kts | 90° |
| 2026-04-30 21:40 | -37.66660 | 144.84797 | 407 ft | 11 kts | 140° |
| 2026-04-30 21:40 | -37.66694 | 144.84815 | 407 ft | 0 kts | 166° |
| 2026-04-30 21:41 | -37.66695 | 144.84815 | 407 ft | 1 kts | 166° |
| 2026-04-30 21:41 | -37.66715 | 144.84820 | 406 ft | 6 kts | 169° |
| 2026-04-30 21:41 | -37.66759 | 144.84835 | 405 ft | 6 kts | 166° |
| 2026-04-30 21:42 | -37.66795 | 144.84837 | 405 ft | 4 kts | 195° |
| 2026-04-30 21:42 | -37.66818 | 144.84806 | 401 ft | 3 kts | 242° |
| 2026-04-30 21:42 | -37.66820 | 144.84800 | 402 ft | 1 kts | 243° |
| 2026-04-30 21:42 | -37.66828 | 144.84781 | 403 ft | 5 kts | 243° |
| 2026-04-30 21:43 | -37.66834 | 144.84766 | 401 ft | 1 kts | 243° |
| 2026-04-30 21:43 | -37.66840 | 144.84752 | 401 ft | 0 kts | 243° |
| 2026-04-30 21:43 | -37.66841 | 144.84748 | 402 ft | 1 kts | 242° |
| 2026-04-30 21:43 | -37.66842 | 144.84747 | 402 ft | 0 kts | 242° |